This is the latest recevied weather packets stored in our database for station/object ON7LDS-13. If no packets are shown the sender has not sent any weather packets the latest 10 day(s).
| Time | Temp. | Humidity | Pressure | Rain* | Wind** | Luminosity | Snow |
|---|---|---|---|---|---|---|---|
| 1777646194 | 23.33° C | 30% | 1026.4 hPa | - | - | - | - |
| 1777641934 | 22.78° C | 31% | 1027 hPa | - | - | - | - |
| 1777640734 | 22.78° C | 31% | 1027.1 hPa | - | - | - | - |
| 1777633533 | 20° C | 35% | 1028.4 hPa | - | - | - | - |
| 1777631753 | 19.44° C | 36% | 1028.8 hPa | - | - | - | - |
| 1777625153 | 16.11° C | 43% | 1029.4 hPa | - | - | - | - |
| 1777623962 | 15° C | 45% | 1029.4 hPa | - | - | - | - |
| 1777619791 | 13.33° C | 50% | 1029.4 hPa | - | - | - | - |
| 1777613190 | 6.67° C | 63% | 1029.2 hPa | - | - | - | - |
| 1777611930 | 5.56° C | 64% | 1029.1 hPa | - | - | - | - |
| 1777604810 | 6.11° C | 59% | 1029.3 hPa | - | - | - | - |
| 1777604190 | 6.11° C | 59% | 1029.3 hPa | - | - | - | - |
| 1777602988 | 6.11° C | 58% | 1029.4 hPa | - | - | - | - |
| 1777599328 | 6.67° C | 54% | 1029.5 hPa | - | - | - | - |
| 1777593387 | 8.33° C | 48% | 1029.6 hPa | - | - | - | - |
| 1777592807 | 8.89° C | 48% | 1029.7 hPa | - | - | - | - |
| 1777592127 | 8.89° C | 47% | 1029.7 hPa | - | - | - | - |
| 1777589727 | 10° C | 43% | 1029.6 hPa | - | - | - | - |
| 1777589127 | 10.56° C | 42% | 1029.6 hPa | - | - | - | - |
| 1777584376 | 13.33° C | 38% | 1029.5 hPa | - | - | - | - |
| 1777580726 | 14.44° C | 35% | 1029 hPa | - | - | - | - |
| 1777579525 | 14.44° C | 35% | 1029 hPa | - | - | - | - |
| 1777578945 | 15° C | 34% | 1029 hPa | - | - | - | - |
| 1777573526 | 17.22° C | 28% | 1028.2 hPa | - | - | - | - |
| 1777572325 | 17.22° C | 30% | 1028.1 hPa | - | - | - | - |
* Rain since midnight (hover to see other rain measurements)
** Current wind speed in m/s (hover to see current wind gust speed)